createdAt,value
2023-02-06T00:01:08.841Z,102047.84
2023-02-06T00:04:30.657Z,102042.63
2023-02-06T00:07:52.493Z,102052.19
2023-02-06T00:11:18.078Z,102043.50
2023-02-06T00:14:39.646Z,102056.53
2023-02-06T00:18:01.873Z,102051.41
2023-02-06T00:21:26.031Z,102041.97
2023-02-06T00:24:48.326Z,102059.09
2023-02-06T00:28:11.951Z,102059.13
2023-02-06T00:31:34.005Z,102071.22
2023-02-06T00:34:55.972Z,102056.69
2023-02-06T00:38:18.096Z,102063.59
2023-02-06T00:41:39.736Z,102058.44
2023-02-06T00:45:03.067Z,102067.06
2023-02-06T00:48:25.328Z,102060.22
2023-02-06T00:51:47.247Z,102065.31
2023-02-06T00:55:09.334Z,102060.22
2023-02-06T00:58:31.496Z,102062.78
2023-02-06T01:01:54.738Z,102061.06
2023-02-06T01:05:16.813Z,102070.50
2023-02-06T01:08:38.694Z,102062.78
2023-02-06T01:12:00.709Z,102068.00
2023-02-06T01:15:22.741Z,102060.28
2023-02-06T01:18:45.996Z,102058.56
2023-02-06T01:22:08.299Z,102053.28
2023-02-06T01:25:30.870Z,102062.78
2023-02-06T01:28:52.732Z,102061.06
2023-02-06T01:32:15.005Z,102065.38
2023-02-06T01:35:38.331Z,102067.94
2023-02-06T01:39:00.424Z,102058.50
2023-02-06T01:42:22.328Z,102050.78
2023-02-06T01:45:46.393Z,102037.75
2023-02-06T01:49:11.766Z,102046.50
2023-02-06T01:52:35.090Z,102054.16
2023-02-06T01:56:01.234Z,102046.44
2023-02-06T01:59:24.430Z,102044.72
2023-02-06T02:02:49.685Z,102048.16
2023-02-06T02:06:14.179Z,102043.09
2023-02-06T02:09:38.307Z,102049.13
2023-02-06T02:13:00.477Z,102046.59
2023-02-06T02:16:28.246Z,102030.22
2023-02-06T02:20:29.156Z,102029.47
2023-02-06T02:23:58.416Z,102022.63
2023-02-06T02:27:44.790Z,102034.63
2023-02-06T02:31:28.704Z,102026.91
2023-02-06T02:35:07.945Z,102035.44
2023-02-06T02:38:42.772Z,102002.63
2023-02-06T02:42:13.063Z,102029.50
2023-02-06T02:45:41.713Z,102027.75
2023-02-06T02:49:08.543Z,102029.44
2023-02-06T02:52:31.664Z,102029.47
2023-02-06T02:55:53.898Z,102037.19
2023-02-06T02:59:23.884Z,102047.44
2023-02-06T03:02:48.275Z,102039.66
2023-02-06T03:06:28.186Z,102030.03
2023-02-06T03:10:01.971Z,102011.00
2023-02-06T03:13:31.086Z,102040.38
2023-02-06T03:16:59.739Z,102034.44
2023-02-06T03:20:23.071Z,102032.66
2023-02-06T03:23:48.429Z,102011.00
2023-02-06T03:27:15.228Z,102045.53
2023-02-06T03:30:40.131Z,102042.88
2023-02-06T03:34:08.472Z,102038.47
2023-02-06T03:37:31.163Z,102051.47
2023-02-06T03:40:56.057Z,102053.16
2023-02-06T03:44:23.657Z,102049.63
2023-02-06T03:47:48.009Z,102034.13
2023-02-06T03:51:13.634Z,102040.19
2023-02-06T03:54:40.562Z,102046.19
2023-02-06T03:58:06.511Z,102040.94
2023-02-06T04:01:30.378Z,102040.94
2023-02-06T04:04:52.575Z,102051.16
2023-02-06T04:08:14.655Z,102048.56
2023-02-06T04:11:36.654Z,102045.00
2023-02-06T04:14:58.550Z,102038.03
2023-02-06T04:18:21.709Z,102052.59
2023-02-06T04:21:43.845Z,102033.44
2023-02-06T04:25:05.956Z,102043.06
2023-02-06T04:28:28.279Z,102048.97
2023-02-06T04:31:50.261Z,102057.53
2023-02-06T04:35:13.665Z,102051.56
2023-02-06T04:38:35.373Z,102042.06
2023-02-06T04:41:57.582Z,102047.19
2023-02-06T04:45:19.414Z,102054.09
2023-02-06T04:48:41.145Z,102052.38
2023-02-06T04:52:04.526Z,102054.00
2023-02-06T04:55:26.376Z,102064.25
2023-02-06T04:58:48.707Z,102071.91
2023-02-06T05:02:10.568Z,102066.75
2023-02-06T05:05:32.547Z,102063.31
2023-02-06T05:08:55.860Z,102074.44
2023-02-06T05:12:18.300Z,102075.25
2023-02-06T05:15:40.826Z,102076.91
2023-02-06T05:19:02.931Z,102083.81
2023-02-06T05:22:24.815Z,102080.19
2023-02-06T05:25:49.392Z,102085.38
2023-02-06T05:29:11.181Z,102090.41
2023-02-06T05:32:33.324Z,102083.38
2023-02-06T05:35:55.123Z,102091.25
2023-02-06T05:39:17.044Z,102100.59
2023-02-06T05:42:40.501Z,102100.53
2023-02-06T05:46:03.161Z,102088.44
2023-02-06T05:49:25.037Z,102096.16
2023-02-06T05:52:47.033Z,102088.28
2023-02-06T05:56:09.161Z,102079.81
2023-02-06T05:59:32.361Z,102093.63
2023-02-06T06:02:54.599Z,102094.44
2023-02-06T06:06:16.472Z,102104.66
2023-02-06T06:09:38.609Z,102102.88
2023-02-06T06:13:00.717Z,102106.28
2023-02-06T06:16:24.195Z,102113.13
2023-02-06T06:19:46.227Z,102109.75
2023-02-06T06:23:09.475Z,102098.50
2023-02-06T06:26:31.740Z,102107.13
2023-02-06T06:29:53.888Z,102112.34
2023-02-06T06:33:17.976Z,102120.97
2023-02-06T06:36:40.145Z,102112.41
2023-02-06T06:40:02.088Z,102126.25
2023-02-06T06:43:25.948Z,102128.00
2023-02-06T06:46:48.045Z,102106.56
2023-02-06T06:50:11.623Z,102111.00
2023-02-06T06:53:33.708Z,102106.78
2023-02-06T06:56:55.718Z,102106.69
2023-02-06T07:00:18.147Z,102117.06
2023-02-06T07:03:40.051Z,102114.63
2023-02-06T07:07:03.402Z,102119.00
2023-02-06T07:10:25.215Z,102122.50
2023-02-06T07:13:47.269Z,102133.72
2023-02-06T07:17:09.309Z,102135.47
2023-02-06T07:20:31.034Z,102137.19
2023-02-06T07:23:54.408Z,102150.09
2023-02-06T07:27:16.727Z,102157.03
2023-02-06T07:30:38.962Z,102175.03
2023-02-06T07:34:02.393Z,102169.19
2023-02-06T07:37:24.309Z,102164.13
2023-02-06T07:40:47.624Z,102165.88
2023-02-06T07:44:09.151Z,102160.81
2023-02-06T07:47:30.990Z,102174.44
2023-02-06T07:50:53.104Z,102172.88
2023-02-06T07:54:15.197Z,102177.25
2023-02-06T07:57:38.612Z,102175.59
2023-02-06T08:01:05.319Z,102154.03
2023-02-06T08:04:29.490Z,102183.44
2023-02-06T08:07:52.095Z,102187.81
2023-02-06T08:11:15.761Z,102183.50
2023-02-06T08:14:39.212Z,102173.22
2023-02-06T08:18:01.381Z,102183.72
2023-02-06T08:21:25.588Z,102200.88
2023-02-06T08:24:48.296Z,102198.44
2023-02-06T08:28:10.291Z,102196.63
2023-02-06T08:31:36.099Z,102213.00
2023-02-06T08:34:57.832Z,102219.06
2023-02-06T08:38:19.732Z,102234.56
2023-02-06T08:41:43.677Z,102228.50
2023-02-06T08:45:06.639Z,102232.00
2023-02-06T08:48:29.901Z,102240.66
2023-02-06T08:51:51.690Z,102241.44
2023-02-06T08:55:13.521Z,102244.16
2023-02-06T08:58:36.071Z,102248.38
2023-02-06T09:01:57.958Z,102243.22
2023-02-06T09:05:21.615Z,102250.19
2023-02-06T09:08:44.789Z,102252.84
2023-02-06T09:12:07.015Z,102264.13
2023-02-06T09:15:29.221Z,102263.28
2023-02-06T09:18:54.195Z,102261.66
2023-02-06T09:22:18.665Z,102260.06
2023-02-06T09:25:40.672Z,102261.81
2023-02-06T09:29:05.658Z,102254.91
2023-02-06T09:32:27.380Z,102274.09
2023-02-06T09:35:49.575Z,102272.38
2023-02-06T09:39:13.112Z,102277.50
2023-02-06T09:42:39.885Z,102283.72
2023-02-06T09:46:06.503Z,102286.31
2023-02-06T09:49:36.925Z,102284.63
2023-02-06T09:53:07.654Z,102300.16
2023-02-06T09:56:39.857Z,102302.81
2023-02-06T10:00:07.443Z,102288.31
2023-02-06T10:03:43.079Z,102297.84
2023-02-06T10:07:18.861Z,102294.41
2023-02-06T10:10:44.995Z,102294.34
2023-02-06T10:14:19.197Z,102291.00
2023-02-06T10:17:53.618Z,102285.91
2023-02-06T10:21:26.931Z,102275.78
2023-02-06T10:24:59.089Z,102268.09
2023-02-06T10:28:27.045Z,102258.44
2023-02-06T10:32:09.773Z,102271.44
2023-02-06T10:35:41.950Z,102250.66
2023-02-06T10:39:36.842Z,102275.66
2023-02-06T10:43:04.567Z,102275.66
2023-02-06T10:46:38.878Z,102283.44
2023-02-06T10:50:12.308Z,102278.22
2023-02-06T10:53:37.446Z,102290.22
2023-02-06T10:57:01.066Z,102290.22
2023-02-06T11:00:26.175Z,102280.81
2023-02-06T11:03:53.799Z,102285.28
2023-02-06T11:07:22.760Z,102276.75
2023-02-06T11:10:46.516Z,102281.13
2023-02-06T11:14:15.369Z,102292.34
2023-02-06T11:17:37.410Z,102287.25
2023-02-06T11:20:59.830Z,102279.53
2023-02-06T11:24:24.636Z,102292.56
2023-02-06T11:27:47.018Z,102288.25
2023-02-06T11:31:10.577Z,102275.34
2023-02-06T11:34:35.757Z,102254.56
2023-02-06T11:38:09.413Z,102292.75
2023-02-06T11:41:33.822Z,102313.44
2023-02-06T11:44:55.905Z,102315.88
2023-02-06T11:48:33.539Z,102320.25
2023-02-06T11:51:56.839Z,102331.16
2023-02-06T11:55:23.632Z,102321.63
2023-02-06T11:58:47.253Z,102321.72
2023-02-06T12:02:28.153Z,102313.94
2023-02-06T12:05:50.184Z,102321.69
2023-02-06T12:09:13.737Z,102320.81
2023-02-06T12:12:40.195Z,102320.78
2023-02-06T12:16:07.061Z,102309.66
2023-02-06T12:19:33.818Z,102289.88
2023-02-06T12:22:58.821Z,102295.91
2023-02-06T12:26:23.623Z,102289.75
2023-02-06T12:29:50.399Z,102293.19
2023-02-06T12:33:18.586Z,102288.97
2023-02-06T12:36:53.524Z,102288.06
2023-02-06T12:40:26.454Z,102292.34
2023-02-06T12:43:54.760Z,102294.91
2023-02-06T12:47:23.796Z,102286.22
2023-02-06T12:50:51.314Z,102291.47
2023-02-06T12:54:18.886Z,102293.13
2023-02-06T12:57:41.510Z,102294.84
2023-02-06T13:01:29.970Z,102296.56
2023-02-06T13:04:55.424Z,102287.13
2023-02-06T13:08:22.411Z,102283.63
2023-02-06T13:11:45.070Z,102286.03
2023-02-06T13:15:09.653Z,102310.31
2023-02-06T13:19:02.923Z,102291.28
2023-02-06T13:22:46.859Z,102306.75
2023-02-06T13:26:10.348Z,102316.94
2023-02-06T13:29:34.995Z,102307.31
2023-02-06T13:32:58.045Z,102321.09
2023-02-06T13:36:26.941Z,102346.72
2023-02-06T13:39:50.418Z,102331.13
2023-02-06T13:43:20.510Z,102337.81
2023-02-06T13:47:22.738Z,102354.91
2023-02-06T13:50:59.604Z,102356.59
2023-02-06T13:54:35.834Z,102356.63
2023-02-06T13:58:20.993Z,102367.50
2023-02-06T14:01:43.046Z,102366.75
2023-02-06T14:05:07.483Z,102358.84
2023-02-06T14:08:45.038Z,102346.63
2023-02-06T14:12:34.412Z,102378.84
2023-02-06T14:16:06.145Z,102386.56
2023-02-06T14:19:35.803Z,102380.59
2023-02-06T14:23:10.884Z,102382.38
2023-02-06T14:26:42.363Z,102399.56
2023-02-06T14:30:19.945Z,102396.09
2023-02-06T14:33:55.836Z,102407.22
2023-02-06T14:37:37.620Z,102403.72
2023-02-06T14:41:02.040Z,102415.75
2023-02-06T14:44:28.435Z,102423.47
2023-02-06T14:47:54.604Z,102424.25
2023-02-06T14:51:25.079Z,102423.31
2023-02-06T14:54:46.821Z,102423.19
2023-02-06T14:58:20.893Z,102426.53
2023-02-06T15:01:44.050Z,102430.69
2023-02-06T15:05:07.258Z,102434.75
2023-02-06T15:08:32.569Z,102448.28
2023-02-06T15:11:57.476Z,102440.34
2023-02-06T15:15:21.530Z,102428.03
2023-02-06T15:18:43.425Z,102437.31
2023-02-06T15:22:08.146Z,102454.28
2023-02-06T15:25:41.532Z,102447.13
2023-02-06T15:29:06.464Z,102451.22
2023-02-06T15:32:30.798Z,102438.09
2023-02-06T15:35:54.455Z,102449.00
2023-02-06T15:39:17.985Z,102455.47
2023-02-06T15:42:41.725Z,102475.19
2023-02-06T15:46:06.816Z,102469.84
2023-02-06T15:49:38.239Z,102467.63
2023-02-06T15:53:00.895Z,102491.78
2023-02-06T15:56:27.488Z,102488.97
2023-02-06T15:59:50.890Z,102493.00
2023-02-06T16:03:20.078Z,102476.38
2023-02-06T16:06:42.294Z,102483.78
2023-02-06T16:10:22.378Z,102473.28
2023-02-06T16:13:47.265Z,102466.28
2023-02-06T16:17:26.794Z,102488.53
2023-02-06T16:20:49.407Z,102501.16
2023-02-06T16:24:17.638Z,102492.41
2023-02-06T16:27:45.303Z,102495.53
2023-02-06T16:31:07.276Z,102508.97
2023-02-06T16:34:42.427Z,102521.59
2023-02-06T16:38:04.182Z,102506.88
2023-02-06T16:41:33.073Z,102506.69
2023-02-06T16:44:59.865Z,102502.09
2023-02-06T16:48:21.890Z,102515.69
2023-02-06T16:51:46.723Z,102517.28
2023-02-06T16:55:17.590Z,102501.69
2023-02-06T16:58:39.636Z,102506.06
2023-02-06T17:02:01.612Z,102500.16
2023-02-06T17:05:25.458Z,102500.94
2023-02-06T17:08:49.339Z,102506.16
2023-02-06T17:12:15.332Z,102510.53
2023-02-06T17:15:37.934Z,102504.53
2023-02-06T17:18:59.697Z,102517.50
2023-02-06T17:22:21.577Z,102528.72
2023-02-06T17:25:45.986Z,102532.19
2023-02-06T17:29:07.682Z,102530.38
2023-02-06T17:32:29.438Z,102537.34
2023-02-06T17:35:51.636Z,102542.59
2023-02-06T17:39:14.088Z,102557.88
2023-02-06T17:42:37.169Z,102555.09
2023-02-06T17:45:59.190Z,102553.91
2023-02-06T17:49:21.072Z,102551.03
2023-02-06T17:52:43.057Z,102556.03
2023-02-06T17:56:06.986Z,102560.97
2023-02-06T17:59:30.270Z,102559.97
2023-02-06T18:02:52.984Z,102559.13
2023-02-06T18:06:15.544Z,102557.38
2023-02-06T18:09:38.137Z,102555.72
2023-02-06T18:13:02.237Z,102553.03
2023-02-06T18:16:28.206Z,102570.09
2023-02-06T18:19:50.835Z,102593.25
2023-02-06T18:23:13.428Z,102602.56
2023-02-06T18:26:35.866Z,102605.97
2023-02-06T18:29:57.664Z,102602.56
2023-02-06T18:33:21.083Z,102593.06
2023-02-06T18:36:43.381Z,102578.94
2023-02-06T18:40:06.036Z,102580.75
2023-02-06T18:43:29.335Z,102596.78
2023-02-06T18:46:51.878Z,102577.81
2023-02-06T18:50:17.654Z,102580.31
2023-02-06T18:53:39.428Z,102580.03
2023-02-06T18:57:01.738Z,102587.66
2023-02-06T19:00:24.910Z,102593.22
2023-02-06T19:03:47.372Z,102596.22
2023-02-06T19:07:11.847Z,102590.72
2023-02-06T19:10:33.728Z,102597.31
2023-02-06T19:13:56.258Z,102601.06
2023-02-06T19:17:18.189Z,102623.84
2023-02-06T19:20:42.706Z,102620.81
2023-02-06T19:24:06.831Z,102622.25
2023-02-06T19:27:28.873Z,102641.50
2023-02-06T19:30:51.208Z,102637.81
2023-02-06T19:34:13.216Z,102628.00
2023-02-06T19:37:35.285Z,102645.03
2023-02-06T19:40:58.508Z,102638.91
2023-02-06T19:44:20.464Z,102639.66
2023-02-06T19:47:43.244Z,102642.06
2023-02-06T19:51:06.957Z,102640.16
2023-02-06T19:54:29.477Z,102639.16
2023-02-06T19:57:53.903Z,102625.38
2023-02-06T20:01:17.868Z,102607.22
2023-02-06T20:04:40.682Z,102607.94
2023-02-06T20:08:02.577Z,102597.13
2023-02-06T20:11:24.562Z,102607.25
2023-02-06T20:14:48.072Z,102600.91
2023-02-06T20:18:09.823Z,102594.63
2023-02-06T20:21:34.321Z,102589.22
2023-02-06T20:24:56.410Z,102585.44
2023-02-06T20:28:18.701Z,102580.03
2023-02-06T20:31:42.256Z,102583.13
2023-02-06T20:35:04.315Z,102575.16
2023-02-06T20:38:26.322Z,102585.09
2023-02-06T20:41:49.641Z,102578.03
2023-02-06T20:45:12.548Z,102578.63
2023-02-06T20:48:36.695Z,102577.19
2023-02-06T20:51:58.547Z,102582.84
2023-02-06T20:55:20.557Z,102589.56
2023-02-06T20:58:43.128Z,102603.75
2023-02-06T21:02:05.179Z,102611.06
2023-02-06T21:05:28.824Z,102607.91
2023-02-06T21:08:52.972Z,102632.59
2023-02-06T21:12:14.984Z,102642.63
2023-02-06T21:15:37.198Z,102612.44
2023-02-06T21:19:00.236Z,102646.78
2023-02-06T21:22:23.791Z,102648.06
2023-02-06T21:25:52.212Z,102646.78
2023-02-06T21:29:16.042Z,102623.13
2023-02-06T21:32:38.080Z,102636.69
2023-02-06T21:36:00.035Z,102624.97
2023-02-06T21:39:27.275Z,102642.25
2023-02-06T21:42:49.491Z,102651.25
2023-02-06T21:46:13.044Z,102657.84
2023-02-06T21:49:35.368Z,102654.41
2023-02-06T21:52:57.460Z,102648.28
2023-02-06T21:56:23.515Z,102646.94
2023-02-06T21:59:45.486Z,102648.50
2023-02-06T22:03:07.547Z,102660.66
2023-02-06T22:06:29.874Z,102665.53
2023-02-06T22:09:52.006Z,102658.47
2023-02-06T22:13:15.508Z,102679.03
2023-02-06T22:16:37.715Z,102678.13
2023-02-06T22:19:59.805Z,102664.44
2023-02-06T22:23:21.654Z,102665.63
2023-02-06T22:26:44.435Z,102669.16
2023-02-06T22:30:09.095Z,102674.31
2023-02-06T22:33:30.761Z,102680.28
2023-02-06T22:36:52.854Z,102676.69
2023-02-06T22:40:14.730Z,102684.28
2023-02-06T22:43:38.786Z,102694.31
2023-02-06T22:47:02.309Z,102700.72
2023-02-06T22:50:24.802Z,102698.63
2023-02-06T22:53:46.802Z,102701.72
2023-02-06T22:57:08.651Z,102709.13
2023-02-06T23:00:30.772Z,102701.03
2023-02-06T23:03:58.247Z,102695.69
2023-02-06T23:07:21.210Z,102703.22
2023-02-06T23:10:50.235Z,102700.34
2023-02-06T23:14:15.117Z,102704.41
2023-02-06T23:17:38.494Z,102700.69
2023-02-06T23:21:05.955Z,102723.25
2023-02-06T23:24:28.913Z,102736.69
2023-02-06T23:27:51.687Z,102706.53
2023-02-06T23:31:16.859Z,102751.44
2023-02-06T23:34:40.128Z,102741.00
2023-02-06T23:38:04.948Z,102740.91
2023-02-06T23:41:30.582Z,102750.22
2023-02-06T23:44:53.121Z,102746.88
2023-02-06T23:48:15.811Z,102741.00
2023-02-06T23:51:39.850Z,102741.06
2023-02-06T23:55:04.458Z,102739.50
2023-02-06T23:58:28.644Z,102740.38
